sensor_id;sensor_type;location;lat;lon;timestamp;temperature;humidity
44855;DHT22;30591;48.228;16.398;2022-07-26T00:02:02;27.50;99.90
44855;DHT22;30591;48.228;16.398;2022-07-26T00:04:29;27.50;99.90
44855;DHT22;30591;48.228;16.398;2022-07-26T00:06:56;27.50;99.90
44855;DHT22;30591;48.228;16.398;2022-07-26T00:09:23;27.50;99.90
44855;DHT22;30591;48.228;16.398;2022-07-26T00:11:50;27.20;99.90
44855;DHT22;30591;48.228;16.398;2022-07-26T00:14:17;27.00;99.90
44855;DHT22;30591;48.228;16.398;2022-07-26T00:16:44;26.90;99.90
44855;DHT22;30591;48.228;16.398;2022-07-26T00:19:12;27.00;99.90
44855;DHT22;30591;48.228;16.398;2022-07-26T00:21:39;27.00;99.90
44855;DHT22;30591;48.228;16.398;2022-07-26T00:24:07;27.00;99.90
44855;DHT22;30591;48.228;16.398;2022-07-26T00:26:34;27.00;99.90
44855;DHT22;30591;48.228;16.398;2022-07-26T00:29:01;27.10;99.90
44855;DHT22;30591;48.228;16.398;2022-07-26T00:31:31;27.30;99.90
44855;DHT22;30591;48.228;16.398;2022-07-26T00:33:57;27.50;99.90
44855;DHT22;30591;48.228;16.398;2022-07-26T00:36:24;27.40;99.90
44855;DHT22;30591;48.228;16.398;2022-07-26T00:38:53;27.40;99.90
44855;DHT22;30591;48.228;16.398;2022-07-26T00:41:20;27.30;99.90
44855;DHT22;30591;48.228;16.398;2022-07-26T00:43:57;26.80;99.90
44855;DHT22;30591;48.228;16.398;2022-07-26T00:46:25;26.90;99.90
44855;DHT22;30591;48.228;16.398;2022-07-26T00:48:52;26.80;99.90
44855;DHT22;30591;48.228;16.398;2022-07-26T00:51:20;27.00;99.90
44855;DHT22;30591;48.228;16.398;2022-07-26T00:53:47;27.20;99.90
44855;DHT22;30591;48.228;16.398;2022-07-26T00:56:15;27.30;99.90
44855;DHT22;30591;48.228;16.398;2022-07-26T00:58:43;27.30;99.90
44855;DHT22;30591;48.228;16.398;2022-07-26T01:01:10;27.30;99.90
44855;DHT22;30591;48.228;16.398;2022-07-26T01:03:38;27.20;99.90
44855;DHT22;30591;48.228;16.398;2022-07-26T01:06:05;27.00;99.90
44855;DHT22;30591;48.228;16.398;2022-07-26T01:08:32;26.50;99.90
44855;DHT22;30591;48.228;16.398;2022-07-26T01:10:59;26.60;99.90
44855;DHT22;30591;48.228;16.398;2022-07-26T01:13:26;26.80;99.90
44855;DHT22;30591;48.228;16.398;2022-07-26T01:16:00;27.10;99.90
44855;DHT22;30591;48.228;16.398;2022-07-26T01:18:27;27.10;99.90
44855;DHT22;30591;48.228;16.398;2022-07-26T01:20:55;27.10;99.90
44855;DHT22;30591;48.228;16.398;2022-07-26T01:23:23;27.00;99.90
44855;DHT22;30591;48.228;16.398;2022-07-26T01:25:50;26.80;99.90
44855;DHT22;30591;48.228;16.398;2022-07-26T01:28:17;26.60;99.90
44855;DHT22;30591;48.228;16.398;2022-07-26T01:30:46;26.50;99.90
44855;DHT22;30591;48.228;16.398;2022-07-26T01:33:13;26.30;99.90
44855;DHT22;30591;48.228;16.398;2022-07-26T01:35:40;25.80;99.90
44855;DHT22;30591;48.228;16.398;2022-07-26T01:38:07;25.40;99.90
44855;DHT22;30591;48.228;16.398;2022-07-26T01:40:34;25.10;99.90
44855;DHT22;30591;48.228;16.398;2022-07-26T01:43:01;24.90;99.90
44855;DHT22;30591;48.228;16.398;2022-07-26T01:45:28;24.90;99.90
44855;DHT22;30591;48.228;16.398;2022-07-26T01:47:55;24.60;99.90
44855;DHT22;30591;48.228;16.398;2022-07-26T01:50:22;24.50;99.90
44855;DHT22;30591;48.228;16.398;2022-07-26T01:52:49;24.40;99.90
44855;DHT22;30591;48.228;16.398;2022-07-26T01:55:16;24.30;99.90
44855;DHT22;30591;48.228;16.398;2022-07-26T01:57:45;24.20;99.90
44855;DHT22;30591;48.228;16.398;2022-07-26T02:00:13;24.10;99.90
44855;DHT22;30591;48.228;16.398;2022-07-26T02:02:40;24.20;99.90
44855;DHT22;30591;48.228;16.398;2022-07-26T02:05:08;24.20;99.90
44855;DHT22;30591;48.228;16.398;2022-07-26T02:07:41;24.20;99.90
44855;DHT22;30591;48.228;16.398;2022-07-26T02:10:11;24.20;99.90
44855;DHT22;30591;48.228;16.398;2022-07-26T02:12:40;24.20;99.90
44855;DHT22;30591;48.228;16.398;2022-07-26T02:15:08;24.10;99.90
44855;DHT22;30591;48.228;16.398;2022-07-26T02:17:35;24.30;99.90
44855;DHT22;30591;48.228;16.398;2022-07-26T02:20:03;24.20;99.90
44855;DHT22;30591;48.228;16.398;2022-07-26T02:22:30;24.00;99.90
44855;DHT22;30591;48.228;16.398;2022-07-26T02:24:57;23.90;99.90
44855;DHT22;30591;48.228;16.398;2022-07-26T02:27:30;23.90;99.90
44855;DHT22;30591;48.228;16.398;2022-07-26T02:29:57;23.90;99.90
44855;DHT22;30591;48.228;16.398;2022-07-26T02:32:24;23.70;99.90
44855;DHT22;30591;48.228;16.398;2022-07-26T02:34:51;23.50;99.90
44855;DHT22;30591;48.228;16.398;2022-07-26T02:37:18;23.50;99.90
44855;DHT22;30591;48.228;16.398;2022-07-26T02:39:45;23.40;99.90
44855;DHT22;30591;48.228;16.398;2022-07-26T02:42:12;23.20;99.90
44855;DHT22;30591;48.228;16.398;2022-07-26T02:44:39;23.20;99.90
44855;DHT22;30591;48.228;16.398;2022-07-26T02:47:07;23.10;99.90
44855;DHT22;30591;48.228;16.398;2022-07-26T02:49:38;23.00;99.90
44855;DHT22;30591;48.228;16.398;2022-07-26T02:52:05;22.90;99.90
44855;DHT22;30591;48.228;16.398;2022-07-26T02:54:32;23.00;99.90
44855;DHT22;30591;48.228;16.398;2022-07-26T02:56:59;22.90;99.90
44855;DHT22;30591;48.228;16.398;2022-07-26T02:59:25;22.90;99.90
44855;DHT22;30591;48.228;16.398;2022-07-26T03:01:52;22.70;99.90
44855;DHT22;30591;48.228;16.398;2022-07-26T03:04:20;22.80;99.90
44855;DHT22;30591;48.228;16.398;2022-07-26T03:06:47;22.80;99.90
44855;DHT22;30591;48.228;16.398;2022-07-26T03:09:13;22.70;99.90
44855;DHT22;30591;48.228;16.398;2022-07-26T03:11:40;22.70;99.90
44855;DHT22;30591;48.228;16.398;2022-07-26T03:14:08;22.70;99.90
44855;DHT22;30591;48.228;16.398;2022-07-26T03:16:35;22.90;99.90
44855;DHT22;30591;48.228;16.398;2022-07-26T03:19:02;22.90;99.90
44855;DHT22;30591;48.228;16.398;2022-07-26T03:21:29;22.70;99.90
44855;DHT22;30591;48.228;16.398;2022-07-26T03:23:56;22.70;99.90
44855;DHT22;30591;48.228;16.398;2022-07-26T03:26:23;22.70;99.90
44855;DHT22;30591;48.228;16.398;2022-07-26T03:28:50;22.70;99.90
44855;DHT22;30591;48.228;16.398;2022-07-26T03:31:17;22.70;99.90
44855;DHT22;30591;48.228;16.398;2022-07-26T03:33:44;22.80;99.90
44855;DHT22;30591;48.228;16.398;2022-07-26T03:36:10;22.90;99.90
44855;DHT22;30591;48.228;16.398;2022-07-26T03:38:41;22.90;99.90
44855;DHT22;30591;48.228;16.398;2022-07-26T03:41:08;22.90;99.90
44855;DHT22;30591;48.228;16.398;2022-07-26T03:43:39;23.00;99.90
44855;DHT22;30591;48.228;16.398;2022-07-26T03:46:06;23.20;99.90
44855;DHT22;30591;48.228;16.398;2022-07-26T03:48:33;23.20;99.90
44855;DHT22;30591;48.228;16.398;2022-07-26T03:51:00;23.20;99.90
44855;DHT22;30591;48.228;16.398;2022-07-26T03:53:26;23.00;99.90
44855;DHT22;30591;48.228;16.398;2022-07-26T03:55:54;22.80;99.90
44855;DHT22;30591;48.228;16.398;2022-07-26T03:58:40;22.80;99.90
44855;DHT22;30591;48.228;16.398;2022-07-26T04:01:07;22.80;99.90
44855;DHT22;30591;48.228;16.398;2022-07-26T04:03:34;22.60;99.90
44855;DHT22;30591;48.228;16.398;2022-07-26T04:06:01;22.60;99.90
44855;DHT22;30591;48.228;16.398;2022-07-26T04:08:29;22.70;99.90
44855;DHT22;30591;48.228;16.398;2022-07-26T04:10:56;22.80;99.90
44855;DHT22;30591;48.228;16.398;2022-07-26T04:13:23;22.50;99.90
44855;DHT22;30591;48.228;16.398;2022-07-26T04:15:50;22.50;99.90
44855;DHT22;30591;48.228;16.398;2022-07-26T04:18:17;22.50;99.90
44855;DHT22;30591;48.228;16.398;2022-07-26T04:20:43;22.60;99.90
44855;DHT22;30591;48.228;16.398;2022-07-26T04:23:11;22.60;99.90
44855;DHT22;30591;48.228;16.398;2022-07-26T04:25:39;22.70;99.90
44855;DHT22;30591;48.228;16.398;2022-07-26T04:28:08;22.70;99.90
44855;DHT22;30591;48.228;16.398;2022-07-26T04:30:35;22.50;99.90
44855;DHT22;30591;48.228;16.398;2022-07-26T04:33:03;22.50;99.90
44855;DHT22;30591;48.228;16.398;2022-07-26T04:35:31;22.60;99.90
44855;DHT22;30591;48.228;16.398;2022-07-26T04:37:58;22.50;99.90
44855;DHT22;30591;48.228;16.398;2022-07-26T04:40:25;22.50;99.90
44855;DHT22;30591;48.228;16.398;2022-07-26T04:42:55;22.70;99.90
44855;DHT22;30591;48.228;16.398;2022-07-26T04:45:21;22.60;99.90
44855;DHT22;30591;48.228;16.398;2022-07-26T04:48:36;22.40;99.90
44855;DHT22;30591;48.228;16.398;2022-07-26T04:51:03;22.40;99.90
44855;DHT22;30591;48.228;16.398;2022-07-26T04:53:30;22.50;99.90
44855;DHT22;30591;48.228;16.398;2022-07-26T04:55:57;22.60;99.90
44855;DHT22;30591;48.228;16.398;2022-07-26T04:58:24;22.70;99.90
44855;DHT22;30591;48.228;16.398;2022-07-26T05:00:51;22.60;99.90
44855;DHT22;30591;48.228;16.398;2022-07-26T05:03:37;22.50;99.90
44855;DHT22;30591;48.228;16.398;2022-07-26T05:06:04;22.60;99.90
44855;DHT22;30591;48.228;16.398;2022-07-26T05:08:31;22.40;99.90
44855;DHT22;30591;48.228;16.398;2022-07-26T05:10:58;22.50;99.90
44855;DHT22;30591;48.228;16.398;2022-07-26T23:54:32;22.50;99.90
44855;DHT22;30591;48.228;16.398;2022-07-26T23:56:59;22.50;99.90
44855;DHT22;30591;48.228;16.398;2022-07-26T23:59:26;22.60;99.90
